sensor_id;sensor_type;location;lat;lon;timestamp;P1;durP1;ratioP1;P2;durP2;ratioP2
6173;SDS011;3120;48.796;9.796;2024-03-23T00:54:35;19.60;;;10.88;;
6173;SDS011;3120;48.796;9.796;2024-03-23T00:57:01;22.02;;;11.38;;
6173;SDS011;3120;48.796;9.796;2024-03-23T00:59:26;20.23;;;11.82;;
6173;SDS011;3120;48.796;9.796;2024-03-23T01:01:53;22.25;;;12.48;;
6173;SDS011;3120;48.796;9.796;2024-03-23T01:04:19;24.88;;;12.20;;
6173;SDS011;3120;48.796;9.796;2024-03-23T01:06:45;25.15;;;11.73;;
6173;SDS011;3120;48.796;9.796;2024-03-23T01:09:11;22.65;;;12.25;;
6173;SDS011;3120;48.796;9.796;2024-03-23T01:11:38;20.38;;;11.85;;
6173;SDS011;3120;48.796;9.796;2024-03-23T01:14:04;21.00;;;12.13;;
6173;SDS011;3120;48.796;9.796;2024-03-23T01:16:31;20.50;;;12.00;;
6173;SDS011;3120;48.796;9.796;2024-03-23T01:18:57;23.15;;;13.00;;
6173;SDS011;3120;48.796;9.796;2024-03-23T01:21:22;28.90;;;13.43;;
6173;SDS011;3120;48.796;9.796;2024-03-23T01:23:48;29.30;;;13.75;;
6173;SDS011;3120;48.796;9.796;2024-03-23T01:26:13;24.48;;;12.73;;
6173;SDS011;3120;48.796;9.796;2024-03-23T01:28:39;29.90;;;13.95;;
6173;SDS011;3120;48.796;9.796;2024-03-23T01:31:05;26.00;;;13.18;;
6173;SDS011;3120;48.796;9.796;2024-03-23T01:33:31;28.48;;;14.13;;
6173;SDS011;3120;48.796;9.796;2024-03-23T01:35:56;29.67;;;13.57;;
6173;SDS011;3120;48.796;9.796;2024-03-23T01:38:22;35.80;;;12.95;;
6173;SDS011;3120;48.796;9.796;2024-03-23T01:40:47;23.10;;;12.15;;
6173;SDS011;3120;48.796;9.796;2024-03-23T01:43:13;19.33;;;11.07;;
6173;SDS011;3120;48.796;9.796;2024-03-23T01:45:38;27.83;;;12.15;;
6173;SDS011;3120;48.796;9.796;2024-03-23T01:48:04;19.27;;;11.50;;
6173;SDS011;3120;48.796;9.796;2024-03-23T01:50:31;24.52;;;11.75;;
6173;SDS011;3120;48.796;9.796;2024-03-23T01:53:03;23.25;;;12.13;;
6173;SDS011;3120;48.796;9.796;2024-03-23T01:55:31;22.75;;;11.60;;
6173;SDS011;3120;48.796;9.796;2024-03-23T01:57:58;21.75;;;11.95;;
6173;SDS011;3120;48.796;9.796;2024-03-23T02:00:23;27.60;;;12.45;;
6173;SDS011;3120;48.796;9.796;2024-03-23T02:02:49;23.83;;;11.80;;
6173;SDS011;3120;48.796;9.796;2024-03-23T02:05:15;28.55;;;14.70;;
6173;SDS011;3120;48.796;9.796;2024-03-23T02:07:40;28.88;;;14.75;;
6173;SDS011;3120;48.796;9.796;2024-03-23T02:10:08;27.00;;;14.45;;
6173;SDS011;3120;48.796;9.796;2024-03-23T02:12:35;29.80;;;12.93;;
6173;SDS011;3120;48.796;9.796;2024-03-23T02:15:01;23.73;;;12.77;;
6173;SDS011;3120;48.796;9.796;2024-03-23T02:17:28;26.58;;;13.40;;
6173;SDS011;3120;48.796;9.796;2024-03-23T02:19:55;22.50;;;13.20;;
6173;SDS011;3120;48.796;9.796;2024-03-23T02:22:21;23.45;;;13.07;;
6173;SDS011;3120;48.796;9.796;2024-03-23T02:24:46;29.63;;;13.55;;
6173;SDS011;3120;48.796;9.796;2024-03-23T02:27:12;22.83;;;13.85;;
6173;SDS011;3120;48.796;9.796;2024-03-23T02:29:37;23.48;;;13.43;;
6173;SDS011;3120;48.796;9.796;2024-03-23T02:32:03;27.02;;;13.15;;
6173;SDS011;3120;48.796;9.796;2024-03-23T02:34:29;22.33;;;13.45;;
6173;SDS011;3120;48.796;9.796;2024-03-23T02:36:54;25.48;;;13.18;;
6173;SDS011;3120;48.796;9.796;2024-03-23T02:39:20;33.08;;;13.02;;
6173;SDS011;3120;48.796;9.796;2024-03-23T02:41:45;24.10;;;13.88;;
6173;SDS011;3120;48.796;9.796;2024-03-23T02:44:13;24.40;;;13.35;;
6173;SDS011;3120;48.796;9.796;2024-03-23T02:46:38;24.65;;;13.95;;
6173;SDS011;3120;48.796;9.796;2024-03-23T02:49:04;25.92;;;14.30;;
6173;SDS011;3120;48.796;9.796;2024-03-23T02:51:30;20.85;;;13.48;;
6173;SDS011;3120;48.796;9.796;2024-03-23T02:53:56;22.55;;;13.45;;
6173;SDS011;3120;48.796;9.796;2024-03-23T02:56:21;26.15;;;12.25;;
6173;SDS011;3120;48.796;9.796;2024-03-23T02:58:47;21.15;;;11.68;;
6173;SDS011;3120;48.796;9.796;2024-03-23T03:01:13;19.10;;;11.20;;
6173;SDS011;3120;48.796;9.796;2024-03-23T03:03:38;18.95;;;11.85;;
6173;SDS011;3120;48.796;9.796;2024-03-23T03:06:04;20.67;;;11.88;;
6173;SDS011;3120;48.796;9.796;2024-03-23T03:08:29;25.65;;;12.52;;
6173;SDS011;3120;48.796;9.796;2024-03-23T03:10:55;23.20;;;11.77;;
6173;SDS011;3120;48.796;9.796;2024-03-23T03:13:21;16.10;;;10.38;;
6173;SDS011;3120;48.796;9.796;2024-03-23T03:15:46;21.95;;;11.70;;
6173;SDS011;3120;48.796;9.796;2024-03-23T03:18:12;21.95;;;11.30;;
6173;SDS011;3120;48.796;9.796;2024-03-23T03:20:38;26.40;;;11.63;;
6173;SDS011;3120;48.796;9.796;2024-03-23T03:23:05;26.27;;;12.60;;
6173;SDS011;3120;48.796;9.796;2024-03-23T03:25:31;20.20;;;12.23;;
6173;SDS011;3120;48.796;9.796;2024-03-23T03:27:56;23.30;;;12.23;;
6173;SDS011;3120;48.796;9.796;2024-03-23T03:30:22;21.65;;;13.15;;
6173;SDS011;3120;48.796;9.796;2024-03-23T03:32:47;21.92;;;12.85;;
6173;SDS011;3120;48.796;9.796;2024-03-23T03:35:14;31.98;;;12.75;;
6173;SDS011;3120;48.796;9.796;2024-03-23T03:37:39;26.35;;;11.63;;
6173;SDS011;3120;48.796;9.796;2024-03-23T03:40:05;23.83;;;11.50;;
6173;SDS011;3120;48.796;9.796;2024-03-23T03:42:33;22.00;;;11.38;;
6173;SDS011;3120;48.796;9.796;2024-03-23T03:44:59;22.95;;;11.82;;
6173;SDS011;3120;48.796;9.796;2024-03-23T03:47:25;20.38;;;10.82;;
6173;SDS011;3120;48.796;9.796;2024-03-23T03:49:50;15.68;;;10.25;;
6173;SDS011;3120;48.796;9.796;2024-03-23T03:52:16;20.42;;;9.60;;
6173;SDS011;3120;48.796;9.796;2024-03-23T03:54:42;16.50;;;9.55;;
6173;SDS011;3120;48.796;9.796;2024-03-23T03:57:07;18.35;;;10.07;;
6173;SDS011;3120;48.796;9.796;2024-03-23T03:59:33;22.15;;;9.98;;
6173;SDS011;3120;48.796;9.796;2024-03-23T04:01:59;24.58;;;9.70;;
6173;SDS011;3120;48.796;9.796;2024-03-23T04:04:24;23.05;;;11.20;;
6173;SDS011;3120;48.796;9.796;2024-03-23T04:06:50;21.83;;;11.13;;
6173;SDS011;3120;48.796;9.796;2024-03-23T04:09:24;25.02;;;11.50;;
6173;SDS011;3120;48.796;9.796;2024-03-23T04:11:49;22.13;;;11.55;;
6173;SDS011;3120;48.796;9.796;2024-03-23T04:14:15;21.85;;;11.45;;
6173;SDS011;3120;48.796;9.796;2024-03-23T04:16:40;20.90;;;11.95;;
6173;SDS011;3120;48.796;9.796;2024-03-23T04:19:06;21.33;;;11.35;;
6173;SDS011;3120;48.796;9.796;2024-03-23T04:21:32;26.85;;;12.63;;
6173;SDS011;3120;48.796;9.796;2024-03-23T04:23:57;19.77;;;12.23;;
6173;SDS011;3120;48.796;9.796;2024-03-23T04:26:23;31.38;;;12.95;;
6173;SDS011;3120;48.796;9.796;2024-03-23T04:28:48;21.48;;;13.07;;
6173;SDS011;3120;48.796;9.796;2024-03-23T04:31:14;22.33;;;12.90;;
6173;SDS011;3120;48.796;9.796;2024-03-23T04:33:40;25.33;;;12.65;;
6173;SDS011;3120;48.796;9.796;2024-03-23T04:36:05;21.90;;;12.75;;
6173;SDS011;3120;48.796;9.796;2024-03-23T04:38:32;17.40;;;11.45;;
6173;SDS011;3120;48.796;9.796;2024-03-23T04:40:58;26.00;;;13.57;;
6173;SDS011;3120;48.796;9.796;2024-03-23T04:43:27;25.83;;;12.75;;
6173;SDS011;3120;48.796;9.796;2024-03-23T04:45:53;24.27;;;13.35;;
6173;SDS011;3120;48.796;9.796;2024-03-23T04:48:20;21.98;;;12.75;;
6173;SDS011;3120;48.796;9.796;2024-03-23T04:50:47;33.15;;;13.55;;
6173;SDS011;3120;48.796;9.796;2024-03-23T04:53:13;20.75;;;11.95;;
6173;SDS011;3120;48.796;9.796;2024-03-23T04:55:39;19.50;;;10.98;;
6173;SDS011;3120;48.796;9.796;2024-03-23T04:58:05;23.83;;;12.00;;
6173;SDS011;3120;48.796;9.796;2024-03-23T05:00:30;25.63;;;11.63;;
6173;SDS011;3120;48.796;9.796;2024-03-23T05:02:56;21.40;;;12.30;;
6173;SDS011;3120;48.796;9.796;2024-03-23T05:05:21;24.63;;;11.93;;
6173;SDS011;3120;48.796;9.796;2024-03-23T05:07:47;21.17;;;10.70;;
6173;SDS011;3120;48.796;9.796;2024-03-23T05:10:12;17.38;;;11.15;;
6173;SDS011;3120;48.796;9.796;2024-03-23T05:12:38;23.67;;;11.45;;
6173;SDS011;3120;48.796;9.796;2024-03-23T05:15:04;19.48;;;10.90;;
6173;SDS011;3120;48.796;9.796;2024-03-23T05:17:31;19.33;;;8.52;;
6173;SDS011;3120;48.796;9.796;2024-03-23T05:19:57;15.23;;;8.32;;
6173;SDS011;3120;48.796;9.796;2024-03-23T05:22:23;11.10;;;7.45;;
6173;SDS011;3120;48.796;9.796;2024-03-23T05:24:48;13.35;;;6.25;;
6173;SDS011;3120;48.796;9.796;2024-03-23T05:27:14;11.52;;;4.50;;
6173;SDS011;3120;48.796;9.796;2024-03-23T05:29:40;7.93;;;4.60;;
6173;SDS011;3120;48.796;9.796;2024-03-23T05:32:05;8.60;;;5.32;;
6173;SDS011;3120;48.796;9.796;2024-03-23T05:34:31;11.13;;;5.97;;
6173;SDS011;3120;48.796;9.796;2024-03-23T05:36:57;17.02;;;7.95;;
6173;SDS011;3120;48.796;9.796;2024-03-23T05:39:23;25.20;;;11.23;;
6173;SDS011;3120;48.796;9.796;2024-03-23T05:41:49;27.13;;;15.10;;
6173;SDS011;3120;48.796;9.796;2024-03-23T05:44:14;31.13;;;15.55;;
6173;SDS011;3120;48.796;9.796;2024-03-23T05:46:40;32.47;;;17.02;;
6173;SDS011;3120;48.796;9.796;2024-03-23T05:49:06;24.52;;;9.98;;
6173;SDS011;3120;48.796;9.796;2024-03-23T05:51:32;33.22;;;15.70;;
6173;SDS011;3120;48.796;9.796;2024-03-23T05:53:58;22.85;;;11.82;;
6173;SDS011;3120;48.796;9.796;2024-03-23T05:56:23;35.25;;;20.38;;
6173;SDS011;3120;48.796;9.796;2024-03-23T05:58:51;35.42;;;20.40;;
6173;SDS011;3120;48.796;9.796;2024-03-23T06:01:16;20.05;;;9.88;;
6173;SDS011;3120;48.796;9.796;2024-03-23T06:03:42;36.15;;;20.92;;
6173;SDS011;3120;48.796;9.796;2024-03-23T06:06:09;18.88;;;9.98;;
6173;SDS011;3120;48.796;9.796;2024-03-23T06:08:37;19.70;;;10.32;;
6173;SDS011;3120;48.796;9.796;2024-03-23T06:11:03;28.98;;;14.13;;
6173;SDS011;3120;48.796;9.796;2024-03-23T06:13:31;18.73;;;9.45;;
6173;SDS011;3120;48.796;9.796;2024-03-23T06:15:58;22.80;;;8.70;;
6173;SDS011;3120;48.796;9.796;2024-03-23T06:18:24;16.92;;;8.15;;
6173;SDS011;3120;48.796;9.796;2024-03-23T06:20:49;23.17;;;11.68;;
6173;SDS011;3120;48.796;9.796;2024-03-23T06:23:15;11.15;;;6.32;;
6173;SDS011;3120;48.796;9.796;2024-03-23T06:25:42;17.70;;;9.05;;
6173;SDS011;3120;48.796;9.796;2024-03-23T06:28:11;8.02;;;4.75;;
6173;SDS011;3120;48.796;9.796;2024-03-23T06:30:38;22.38;;;8.05;;
6173;SDS011;3120;48.796;9.796;2024-03-23T06:33:04;11.77;;;6.38;;
6173;SDS011;3120;48.796;9.796;2024-03-23T06:35:30;12.05;;;7.07;;
6173;SDS011;3120;48.796;9.796;2024-03-23T06:37:56;14.73;;;9.10;;
6173;SDS011;3120;48.796;9.796;2024-03-23T06:40:23;13.60;;;8.32;;
6173;SDS011;3120;48.796;9.796;2024-03-23T06:42:49;23.95;;;11.20;;
6173;SDS011;3120;48.796;9.796;2024-03-23T06:45:21;14.15;;;9.32;;
6173;SDS011;3120;48.796;9.796;2024-03-23T06:47:54;19.80;;;7.97;;
6173;SDS011;3120;48.796;9.796;2024-03-23T06:50:22;15.32;;;8.27;;
6173;SDS011;3120;48.796;9.796;2024-03-23T06:52:49;12.07;;;6.55;;
6173;SDS011;3120;48.796;9.796;2024-03-23T06:55:15;15.77;;;9.50;;
6173;SDS011;3120;48.796;9.796;2024-03-23T06:57:42;13.98;;;5.32;;
6173;SDS011;3120;48.796;9.796;2024-03-23T07:00:09;10.63;;;5.85;;
6173;SDS011;3120;48.796;9.796;2024-03-23T07:02:35;13.98;;;6.45;;
6173;SDS011;3120;48.796;9.796;2024-03-23T07:05:01;12.60;;;6.22;;
6173;SDS011;3120;48.796;9.796;2024-03-23T07:07:26;10.98;;;5.65;;
6173;SDS011;3120;48.796;9.796;2024-03-23T07:09:52;4.03;;;2.60;;
6173;SDS011;3120;48.796;9.796;2024-03-23T07:12:18;4.60;;;3.17;;
6173;SDS011;3120;48.796;9.796;2024-03-23T07:14:44;4.93;;;3.60;;
6173;SDS011;3120;48.796;9.796;2024-03-23T07:17:10;7.88;;;3.95;;
6173;SDS011;3120;48.796;9.796;2024-03-23T07:19:36;5.22;;;3.17;;
6173;SDS011;3120;48.796;9.796;2024-03-23T07:22:01;5.22;;;3.13;;
6173;SDS011;3120;48.796;9.796;2024-03-23T07:24:27;3.55;;;1.77;;
6173;SDS011;3120;48.796;9.796;2024-03-23T07:26:52;2.90;;;1.73;;
6173;SDS011;3120;48.796;9.796;2024-03-23T07:29:20;1.08;;;0.95;;
6173;SDS011;3120;48.796;9.796;2024-03-23T07:31:46;2.17;;;0.68;;
6173;SDS011;3120;48.796;9.796;2024-03-23T07:34:11;1.30;;;1.00;;
6173;SDS011;3120;48.796;9.796;2024-03-23T07:36:37;0.98;;;0.90;;
6173;SDS011;3120;48.796;9.796;2024-03-23T07:39:03;1.48;;;1.02;;
6173;SDS011;3120;48.796;9.796;2024-03-23T07:41:28;0.82;;;0.73;;
6173;SDS011;3120;48.796;9.796;2024-03-23T07:43:55;2.05;;;1.20;;
6173;SDS011;3120;48.796;9.796;2024-03-23T07:46:21;0.80;;;0.50;;
6173;SDS011;3120;48.796;9.796;2024-03-23T07:48:47;2.25;;;0.60;;
6173;SDS011;3120;48.796;9.796;2024-03-23T07:51:16;4.68;;;0.77;;
6173;SDS011;3120;48.796;9.796;2024-03-23T07:53:45;0.65;;;0.50;;
6173;SDS011;3120;48.796;9.796;2024-03-23T07:56:13;3.03;;;0.80;;
6173;SDS011;3120;48.796;9.796;2024-03-23T07:58:40;0.63;;;0.43;;
6173;SDS011;3120;48.796;9.796;2024-03-23T08:01:07;3.40;;;0.60;;
6173;SDS011;3120;48.796;9.796;2024-03-23T08:03:37;1.58;;;0.52;;
6173;SDS011;3120;48.796;9.796;2024-03-23T08:08:34;0.43;;;0.43;;
6173;SDS011;3120;48.796;9.796;2024-03-23T08:11:00;0.32;;;0.32;;
6173;SDS011;3120;48.796;9.796;2024-03-23T08:13:26;0.50;;;0.40;;
6173;SDS011;3120;48.796;9.796;2024-03-23T08:15:51;0.80;;;0.25;;
6173;SDS011;3120;48.796;9.796;2024-03-23T08:18:20;0.40;;;0.25;;
6173;SDS011;3120;48.796;9.796;2024-03-23T08:20:46;0.45;;;0.38;;
6173;SDS011;3120;48.796;9.796;2024-03-23T08:23:12;1.17;;;0.30;;
6173;SDS011;3120;48.796;9.796;2024-03-23T08:25:37;0.43;;;0.25;;
6173;SDS011;3120;48.796;9.796;2024-03-23T08:28:03;0.90;;;0.40;;
6173;SDS011;3120;48.796;9.796;2024-03-23T08:30:28;0.63;;;0.50;;
6173;SDS011;3120;48.796;9.796;2024-03-23T08:32:54;0.90;;;0.70;;
6173;SDS011;3120;48.796;9.796;2024-03-23T08:35:20;0.40;;;0.40;;
6173;SDS011;3120;48.796;9.796;2024-03-23T08:37:46;0.52;;;0.52;;
6173;SDS011;3120;48.796;9.796;2024-03-23T08:40:11;1.40;;;0.50;;
6173;SDS011;3120;48.796;9.796;2024-03-23T08:42:37;2.38;;;0.88;;
6173;SDS011;3120;48.796;9.796;2024-03-23T08:45:02;0.45;;;0.45;;
6173;SDS011;3120;48.796;9.796;2024-03-23T08:47:28;0.32;;;0.30;;
6173;SDS011;3120;48.796;9.796;2024-03-23T08:49:54;2.30;;;0.30;;
6173;SDS011;3120;48.796;9.796;2024-03-23T08:52:20;0.35;;;0.35;;
6173;SDS011;3120;48.796;9.796;2024-03-23T08:54:48;0.35;;;0.35;;
6173;SDS011;3120;48.796;9.796;2024-03-23T08:57:13;0.43;;;0.30;;
6173;SDS011;3120;48.796;9.796;2024-03-23T08:59:39;0.20;;;0.20;;
6173;SDS011;3120;48.796;9.796;2024-03-23T09:02:04;0.20;;;0.20;;
6173;SDS011;3120;48.796;9.796;2024-03-23T09:04:30;0.20;;;0.20;;
6173;SDS011;3120;48.796;9.796;2024-03-23T09:06:56;0.40;;;0.38;;
6173;SDS011;3120;48.796;9.796;2024-03-23T09:09:24;0.20;;;0.20;;
6173;SDS011;3120;48.796;9.796;2024-03-23T09:11:49;0.15;;;0.15;;
6173;SDS011;3120;48.796;9.796;2024-03-23T09:14:15;0.52;;;0.30;;
6173;SDS011;3120;48.796;9.796;2024-03-23T09:16:40;0.45;;;0.20;;
6173;SDS011;3120;48.796;9.796;2024-03-23T09:19:06;0.20;;;0.20;;
6173;SDS011;3120;48.796;9.796;2024-03-23T09:21:32;4.03;;;0.40;;
6173;SDS011;3120;48.796;9.796;2024-03-23T09:23:58;4.43;;;0.63;;
6173;SDS011;3120;48.796;9.796;2024-03-23T09:26:23;2.90;;;0.40;;
6173;SDS011;3120;48.796;9.796;2024-03-23T09:28:49;1.83;;;0.40;;
6173;SDS011;3120;48.796;9.796;2024-03-23T09:31:15;2.00;;;0.52;;
6173;SDS011;3120;48.796;9.796;2024-03-23T09:33:40;3.20;;;0.60;;
6173;SDS011;3120;48.796;9.796;2024-03-23T09:36:06;1.33;;;0.57;;
6173;SDS011;3120;48.796;9.796;2024-03-23T09:38:33;2.78;;;0.63;;
6173;SDS011;3120;48.796;9.796;2024-03-23T09:40:58;0.95;;;0.80;;
6173;SDS011;3120;48.796;9.796;2024-03-23T09:43:24;1.88;;;0.85;;
6173;SDS011;3120;48.796;9.796;2024-03-23T09:45:50;3.42;;;1.02;;
6173;SDS011;3120;48.796;9.796;2024-03-23T09:48:17;2.55;;;0.80;;
6173;SDS011;3120;48.796;9.796;2024-03-23T09:50:43;7.82;;;1.40;;
6173;SDS011;3120;48.796;9.796;2024-03-23T09:53:11;2.05;;;0.40;;
6173;SDS011;3120;48.796;9.796;2024-03-23T09:55:38;2.75;;;0.47;;
6173;SDS011;3120;48.796;9.796;2024-03-23T09:58:05;3.25;;;1.17;;
6173;SDS011;3120;48.796;9.796;2024-03-23T10:00:32;1.27;;;0.80;;
6173;SDS011;3120;48.796;9.796;2024-03-23T10:02:58;3.97;;;1.02;;
6173;SDS011;3120;48.796;9.796;2024-03-23T10:05:27;0.47;;;0.25;;
6173;SDS011;3120;48.796;9.796;2024-03-23T10:07:53;3.92;;;0.98;;
6173;SDS011;3120;48.796;9.796;2024-03-23T10:10:19;0.63;;;0.47;;
6173;SDS011;3120;48.796;9.796;2024-03-23T10:12:47;3.38;;;0.60;;
6173;SDS011;3120;48.796;9.796;2024-03-23T10:15:22;4.78;;;0.98;;
6173;SDS011;3120;48.796;9.796;2024-03-23T10:17:49;2.85;;;0.93;;
6173;SDS011;3120;48.796;9.796;2024-03-23T10:20:19;9.50;;;1.25;;
6173;SDS011;3120;48.796;9.796;2024-03-23T10:22:47;4.40;;;1.40;;
6173;SDS011;3120;48.796;9.796;2024-03-23T10:25:15;7.95;;;1.20;;
6173;SDS011;3120;48.796;9.796;2024-03-23T10:30:12;5.82;;;1.60;;
6173;SDS011;3120;48.796;9.796;2024-03-23T10:32:41;7.13;;;1.80;;
6173;SDS011;3120;48.796;9.796;2024-03-23T10:35:17;8.68;;;1.92;;
6173;SDS011;3120;48.796;9.796;2024-03-23T10:37:44;9.77;;;1.70;;
6173;SDS011;3120;48.796;9.796;2024-03-23T10:40:12;5.25;;;1.83;;
6173;SDS011;3120;48.796;9.796;2024-03-23T10:42:38;8.38;;;1.92;;
6173;SDS011;3120;48.796;9.796;2024-03-23T10:45:06;6.63;;;1.70;;
6173;SDS011;3120;48.796;9.796;2024-03-23T10:47:36;7.13;;;1.13;;
6173;SDS011;3120;48.796;9.796;2024-03-23T10:50:05;8.23;;;1.23;;
6173;SDS011;3120;48.796;9.796;2024-03-23T10:52:34;3.30;;;0.98;;
6173;SDS011;3120;48.796;9.796;2024-03-23T10:55:01;9.38;;;1.60;;
6173;SDS011;3120;48.796;9.796;2024-03-23T10:57:40;3.55;;;1.20;;
6173;SDS011;3120;48.796;9.796;2024-03-23T11:00:09;5.57;;;1.67;;
6173;SDS011;3120;48.796;9.796;2024-03-23T11:02:35;10.32;;;1.80;;
6173;SDS011;3120;48.796;9.796;2024-03-23T11:05:01;7.22;;;1.70;;
6173;SDS011;3120;48.796;9.796;2024-03-23T11:09:54;7.75;;;1.83;;
6173;SDS011;3120;48.796;9.796;2024-03-23T11:14:50;3.45;;;1.05;;
6173;SDS011;3120;48.796;9.796;2024-03-23T11:17:20;11.75;;;2.00;;
6173;SDS011;3120;48.796;9.796;2024-03-23T11:20:02;10.10;;;1.90;;
6173;SDS011;3120;48.796;9.796;2024-03-23T11:22:40;10.65;;;1.92;;
6173;SDS011;3120;48.796;9.796;2024-03-23T11:25:20;8.15;;;1.88;;
6173;SDS011;3120;48.796;9.796;2024-03-23T11:27:47;11.60;;;2.90;;
6173;SDS011;3120;48.796;9.796;2024-03-23T11:30:18;5.88;;;2.00;;
6173;SDS011;3120;48.796;9.796;2024-03-23T11:32:48;21.15;;;3.67;;
6173;SDS011;3120;48.796;9.796;2024-03-23T11:35:28;10.70;;;3.13;;
6173;SDS011;3120;48.796;9.796;2024-03-23T11:40:33;11.10;;;3.90;;
6173;SDS011;3120;48.796;9.796;2024-03-23T11:43:00;8.07;;;3.42;;
6173;SDS011;3120;48.796;9.796;2024-03-23T11:45:33;18.40;;;3.22;;
6173;SDS011;3120;48.796;9.796;2024-03-23T11:48:08;6.47;;;2.80;;
6173;SDS011;3120;48.796;9.796;2024-03-23T11:50:36;5.90;;;2.95;;
6173;SDS011;3120;48.796;9.796;2024-03-23T11:53:15;6.07;;;2.05;;
6173;SDS011;3120;48.796;9.796;2024-03-23T11:55:55;12.65;;;5.10;;
6173;SDS011;3120;48.796;9.796;2024-03-23T11:58:22;8.02;;;3.03;;
6173;SDS011;3120;48.796;9.796;2024-03-23T12:00:52;7.00;;;2.47;;
6173;SDS011;3120;48.796;9.796;2024-03-23T12:03:27;23.40;;;6.78;;
6173;SDS011;3120;48.796;9.796;2024-03-23T12:05:55;20.85;;;6.55;;
6173;SDS011;3120;48.796;9.796;2024-03-23T12:08:33;11.13;;;5.07;;
6173;SDS011;3120;48.796;9.796;2024-03-23T12:11:13;12.63;;;2.83;;
6173;SDS011;3120;48.796;9.796;2024-03-23T12:13:40;18.10;;;4.88;;
6173;SDS011;3120;48.796;9.796;2024-03-23T12:16:09;12.70;;;4.72;;
6173;SDS011;3120;48.796;9.796;2024-03-23T12:18:35;12.90;;;4.20;;
6173;SDS011;3120;48.796;9.796;2024-03-23T12:21:05;9.82;;;4.03;;
6173;SDS011;3120;48.796;9.796;2024-03-23T12:23:31;13.82;;;4.43;;
6173;SDS011;3120;48.796;9.796;2024-03-23T12:25:57;15.60;;;4.38;;
6173;SDS011;3120;48.796;9.796;2024-03-23T12:28:23;13.48;;;4.53;;
6173;SDS011;3120;48.796;9.796;2024-03-23T12:30:49;11.85;;;4.85;;
6173;SDS011;3120;48.796;9.796;2024-03-23T12:33:14;9.80;;;3.13;;
6173;SDS011;3120;48.796;9.796;2024-03-23T12:35:40;9.20;;;3.20;;
6173;SDS011;3120;48.796;9.796;2024-03-23T12:38:06;5.97;;;2.17;;
6173;SDS011;3120;48.796;9.796;2024-03-23T12:40:32;11.23;;;2.80;;
6173;SDS011;3120;48.796;9.796;2024-03-23T12:42:57;8.82;;;3.80;;
6173;SDS011;3120;48.796;9.796;2024-03-23T12:45:23;3.90;;;1.90;;
6173;SDS011;3120;48.796;9.796;2024-03-23T12:47:49;16.67;;;3.50;;
6173;SDS011;3120;48.796;9.796;2024-03-23T12:50:14;4.00;;;1.38;;
6173;SDS011;3120;48.796;9.796;2024-03-23T12:52:40;9.15;;;3.42;;
6173;SDS011;3120;48.796;9.796;2024-03-23T12:55:06;7.35;;;2.45;;
6173;SDS011;3120;48.796;9.796;2024-03-23T12:57:32;10.05;;;3.08;;
6173;SDS011;3120;48.796;9.796;2024-03-23T12:59:58;5.78;;;1.85;;
6173;SDS011;3120;48.796;9.796;2024-03-23T13:02:25;3.30;;;1.00;;
6173;SDS011;3120;48.796;9.796;2024-03-23T13:04:51;9.43;;;3.20;;
6173;SDS011;3120;48.796;9.796;2024-03-23T13:07:17;6.43;;;1.50;;
6173;SDS011;3120;48.796;9.796;2024-03-23T13:09:44;3.88;;;1.52;;
6173;SDS011;3120;48.796;9.796;2024-03-23T13:12:10;6.47;;;2.50;;
6173;SDS011;3120;48.796;9.796;2024-03-23T13:14:39;6.80;;;2.28;;
6173;SDS011;3120;48.796;9.796;2024-03-23T13:17:05;7.10;;;2.35;;
6173;SDS011;3120;48.796;9.796;2024-03-23T13:19:31;5.60;;;2.20;;
6173;SDS011;3120;48.796;9.796;2024-03-23T13:21:57;5.53;;;1.90;;
6173;SDS011;3120;48.796;9.796;2024-03-23T13:24:29;3.13;;;1.48;;
6173;SDS011;3120;48.796;9.796;2024-03-23T13:26:55;7.32;;;1.60;;
6173;SDS011;3120;48.796;9.796;2024-03-23T13:29:21;2.15;;;1.10;;
6173;SDS011;3120;48.796;9.796;2024-03-23T13:31:48;8.00;;;2.10;;
6173;SDS011;3120;48.796;9.796;2024-03-23T13:34:15;4.95;;;2.08;;
6173;SDS011;3120;48.796;9.796;2024-03-23T13:36:42;7.88;;;2.22;;
6173;SDS011;3120;48.796;9.796;2024-03-23T13:39:08;6.97;;;2.03;;
6173;SDS011;3120;48.796;9.796;2024-03-23T13:41:39;5.90;;;2.58;;
6173;SDS011;3120;48.796;9.796;2024-03-23T13:44:09;5.20;;;1.42;;
6173;SDS011;3120;48.796;9.796;2024-03-23T13:46:35;9.18;;;2.28;;
6173;SDS011;3120;48.796;9.796;2024-03-23T13:49:02;6.63;;;1.83;;
6173;SDS011;3120;48.796;9.796;2024-03-23T13:51:27;8.93;;;1.98;;
6173;SDS011;3120;48.796;9.796;2024-03-23T13:53:54;5.05;;;1.42;;
6173;SDS011;3120;48.796;9.796;2024-03-23T13:56:21;5.75;;;1.40;;
6173;SDS011;3120;48.796;9.796;2024-03-23T13:58:50;7.28;;;0.70;;
6173;SDS011;3120;48.796;9.796;2024-03-23T14:01:16;14.25;;;1.77;;
6173;SDS011;3120;48.796;9.796;2024-03-23T14:03:42;8.75;;;1.50;;
6173;SDS011;3120;48.796;9.796;2024-03-23T14:06:08;5.68;;;1.15;;
6173;SDS011;3120;48.796;9.796;2024-03-23T14:08:38;3.90;;;0.60;;
6173;SDS011;3120;48.796;9.796;2024-03-23T14:11:08;10.00;;;1.55;;
6173;SDS011;3120;48.796;9.796;2024-03-23T14:13:35;7.05;;;1.30;;
6173;SDS011;3120;48.796;9.796;2024-03-23T14:16:01;6.95;;;1.58;;
6173;SDS011;3120;48.796;9.796;2024-03-23T14:18:27;4.95;;;1.10;;
6173;SDS011;3120;48.796;9.796;2024-03-23T14:20:57;6.85;;;1.48;;
6173;SDS011;3120;48.796;9.796;2024-03-23T14:23:25;4.40;;;0.77;;
6173;SDS011;3120;48.796;9.796;2024-03-23T14:25:53;2.30;;;0.55;;
6173;SDS011;3120;48.796;9.796;2024-03-23T14:28:19;3.50;;;0.98;;
6173;SDS011;3120;48.796;9.796;2024-03-23T14:30:45;6.72;;;1.25;;
6173;SDS011;3120;48.796;9.796;2024-03-23T14:33:11;2.13;;;0.52;;
6173;SDS011;3120;48.796;9.796;2024-03-23T14:35:37;2.63;;;0.73;;
6173;SDS011;3120;48.796;9.796;2024-03-23T14:38:03;6.35;;;0.77;;
6173;SDS011;3120;48.796;9.796;2024-03-23T14:40:29;6.18;;;0.85;;
6173;SDS011;3120;48.796;9.796;2024-03-23T14:42:55;2.90;;;0.73;;
6173;SDS011;3120;48.796;9.796;2024-03-23T14:45:21;4.03;;;0.50;;
6173;SDS011;3120;48.796;9.796;2024-03-23T14:47:47;2.33;;;0.43;;
6173;SDS011;3120;48.796;9.796;2024-03-23T14:50:13;1.55;;;0.60;;
6173;SDS011;3120;48.796;9.796;2024-03-23T14:52:41;6.97;;;1.00;;
6173;SDS011;3120;48.796;9.796;2024-03-23T14:55:08;1.85;;;0.38;;
6173;SDS011;3120;48.796;9.796;2024-03-23T14:57:34;4.75;;;0.75;;
6173;SDS011;3120;48.796;9.796;2024-03-23T15:00:00;8.52;;;1.10;;
6173;SDS011;3120;48.796;9.796;2024-03-23T15:02:26;3.90;;;0.73;;
6173;SDS011;3120;48.796;9.796;2024-03-23T15:04:53;1.65;;;0.63;;
6173;SDS011;3120;48.796;9.796;2024-03-23T15:07:19;0.98;;;0.40;;
6173;SDS011;3120;48.796;9.796;2024-03-23T15:09:44;1.98;;;0.55;;
6173;SDS011;3120;48.796;9.796;2024-03-23T15:12:10;0.40;;;0.22;;
6173;SDS011;3120;48.796;9.796;2024-03-23T15:14:36;1.70;;;0.55;;
6173;SDS011;3120;48.796;9.796;2024-03-23T15:17:03;0.55;;;0.38;;
6173;SDS011;3120;48.796;9.796;2024-03-23T15:19:32;1.17;;;0.43;;
6173;SDS011;3120;48.796;9.796;2024-03-23T15:21:58;0.93;;;0.32;;
6173;SDS011;3120;48.796;9.796;2024-03-23T15:24:23;1.75;;;0.40;;
6173;SDS011;3120;48.796;9.796;2024-03-23T15:26:50;3.47;;;0.47;;
6173;SDS011;3120;48.796;9.796;2024-03-23T15:29:17;5.60;;;0.52;;
6173;SDS011;3120;48.796;9.796;2024-03-23T15:31:43;1.30;;;0.30;;
6173;SDS011;3120;48.796;9.796;2024-03-23T15:34:08;2.08;;;0.17;;
6173;SDS011;3120;48.796;9.796;2024-03-23T15:36:37;11.38;;;0.70;;
6173;SDS011;3120;48.796;9.796;2024-03-23T15:39:04;3.15;;;0.57;;
6173;SDS011;3120;48.796;9.796;2024-03-23T15:41:30;3.70;;;1.17;;
6173;SDS011;3120;48.796;9.796;2024-03-23T15:43:57;5.55;;;0.63;;
6173;SDS011;3120;48.796;9.796;2024-03-23T15:46:22;3.70;;;0.65;;
6173;SDS011;3120;48.796;9.796;2024-03-23T15:48:50;2.00;;;0.30;;
6173;SDS011;3120;48.796;9.796;2024-03-23T15:51:16;4.13;;;0.50;;
6173;SDS011;3120;48.796;9.796;2024-03-23T15:53:43;1.85;;;0.60;;
6173;SDS011;3120;48.796;9.796;2024-03-23T15:56:08;3.88;;;1.02;;
6173;SDS011;3120;48.796;9.796;2024-03-23T15:58:35;3.35;;;0.52;;
6173;SDS011;3120;48.796;9.796;2024-03-23T16:03:26;6.45;;;1.17;;
6173;SDS011;3120;48.796;9.796;2024-03-23T16:08:22;4.63;;;0.70;;
6173;SDS011;3120;48.796;9.796;2024-03-23T16:10:48;4.13;;;1.08;;
6173;SDS011;3120;48.796;9.796;2024-03-23T16:13:15;2.70;;;0.80;;